Time;durP1;ratioP1;P1;durP2;ratioP2;P2;SDS_P1;SDS_P2;PMS_P1;PMS_P2;Temp;Humidity;BMP_temperature;BMP_pressure;BME280_temperature;BME280_humidity;BME280_pressure;Samples;Min_cycle;Max_cycle;Signal;HPM_P1;HPM_P2
2024/03/27 00:00:07;;;;;;;38.80;25.20;;;;;;;3.65;100.00;99748.69;109468;1251;74461;-54
2024/03/27 00:02:35;;;;;;;41.00;27.40;;;;;;;3.58;100.00;99748.35;109472;1251;67067;-54
2024/03/27 00:05:03;;;;;;;40.90;27.00;;;;;;;3.52;100.00;99747.98;109464;1251;72318;-55
2024/03/27 00:07:31;;;;;;;36.60;24.90;;;;;;;3.44;100.00;99745.95;109464;1251;60369;-54
2024/03/27 00:09:58;;;;;;;30.80;19.90;;;;;;;3.39;100.00;99745.41;109450;1251;60114;-55
2024/03/27 00:12:26;;;;;;;26.70;17.70;;;;;;;3.38;100.00;99747.08;109506;1250;73813;-54
2024/03/27 00:14:53;;;;;;;37.10;21.80;;;;;;;3.42;100.00;99747.58;109405;1251;65679;-57
2024/03/27 00:17:21;;;;;;;40.80;25.20;;;;;;;3.47;100.00;99747.55;109456;1251;73633;-55
2024/03/27 00:19:49;;;;;;;43.70;25.00;;;;;;;3.45;100.00;99748.44;109444;1251;59939;-55
2024/03/27 00:22:16;;;;;;;38.80;25.00;;;;;;;3.38;100.00;99755.17;109492;1249;60100;-54
2024/03/27 00:24:44;;;;;;;40.00;25.80;;;;;;;3.31;100.00;99760.70;109587;1250;75418;-55
2024/03/27 00:27:11;;;;;;;44.20;26.20;;;;;;;3.24;100.00;99765.27;109388;1254;65817;-55
2024/03/27 00:29:40;;;;;;;37.00;25.90;;;;;;;3.16;100.00;99764.30;109475;1251;72721;-54
2024/03/27 00:32:07;;;;;;;34.20;24.00;;;;;;;3.07;100.00;99767.02;109427;1250;59759;-54
2024/03/27 00:34:35;;;;;;;35.30;22.40;;;;;;;3.03;100.00;99765.08;109473;1251;60238;-55
2024/03/27 00:37:06;;;;;;;36.30;23.50;;;;;;;3.01;100.00;99766.09;109462;1250;75600;-56
2024/03/27 00:39:33;;;;;;;32.40;20.70;;;;;;;2.96;100.00;99763.96;109519;1251;67022;-54
2024/03/27 00:42:01;;;;;;;34.40;20.10;;;;;;;2.93;100.00;99774.89;109489;1251;71873;-55
2024/03/27 00:44:28;;;;;;;35.40;20.10;;;;;;;2.91;100.00;99779.24;109439;1250;59757;-54
2024/03/27 00:46:55;;;;;;;33.10;21.10;;;;;;;2.87;100.00;99785.09;109423;1249;59863;-58
2024/03/27 00:49:23;;;;;;;42.60;22.80;;;;;;;2.80;100.00;99791.77;109470;1251;75141;-55
2024/03/27 00:51:50;;;;;;;31.50;20.90;;;;;;;2.73;100.00;99790.89;109483;1250;67340;-54
2024/03/27 00:54:17;;;;;;;27.60;18.20;;;;;;;2.68;100.00;99793.23;109423;1250;71432;-54
2024/03/27 00:56:45;;;;;;;29.90;18.90;;;;;;;2.67;100.00;99792.41;109500;1251;59758;-54
2024/03/27 00:59:13;;;;;;;22.30;14.80;;;;;;;2.69;100.00;99792.60;109418;1249;60519;-54
2024/03/27 01:01:40;;;;;;;21.00;13.40;;;;;;;2.73;100.00;99797.55;109518;1249;75522;-55
2024/03/27 01:04:08;;;;;;;25.00;16.20;;;;;;;2.88;100.00;99804.93;109605;1251;66953;-55
2024/03/27 01:06:35;;;;;;;25.20;15.70;;;;;;;3.07;100.00;99813.54;109434;1249;72773;-54
2024/03/27 01:09:06;;;;;;;21.00;13.00;;;;;;;3.13;100.00;99806.97;109470;1249;60269;-58
2024/03/27 01:11:33;;;;;;;16.00;9.60;;;;;;;3.21;100.00;99803.83;109485;1249;60023;-54
2024/03/27 01:14:01;;;;;;;16.00;9.00;;;;;;;3.41;100.00;99808.45;109493;1249;73430;-54
2024/03/27 01:16:29;;;;;;;13.00;9.20;;;;;;;3.66;100.00;99818.38;109506;1250;64732;-54
2024/03/27 01:18:56;;;;;;;15.30;9.60;;;;;;;3.89;100.00;99818.17;109482;1253;72739;-58
2024/03/27 01:21:24;;;;;;;13.60;9.20;;;;;;;4.07;100.00;99825.23;109443;1253;60989;-56
2024/03/27 01:23:51;;;;;;;15.90;9.50;;;;;;;4.18;100.00;99825.36;109489;1249;59703;-54
2024/03/27 01:26:19;;;;;;;17.70;9.40;;;;;;;4.28;100.00;99827.60;109518;1250;75522;-56
2024/03/27 01:28:46;;;;;;;14.90;9.80;;;;;;;4.37;100.00;99831.33;109532;1250;67110;-54
2024/03/27 01:31:14;;;;;;;15.10;9.70;;;;;;;4.42;100.00;99828.99;109390;1251;72762;-55
2024/03/27 01:33:41;;;;;;;14.60;9.10;;;;;;;4.42;100.00;99826.02;109474;1249;60931;-55
2024/03/27 01:36:08;;;;;;;14.80;8.80;;;;;;;4.43;100.00;99824.19;109467;1249;60258;-54
2024/03/27 01:38:36;;;;;;;13.70;9.00;;;;;;;4.45;100.00;99823.11;109491;1250;75431;-54
2024/03/27 01:41:04;;;;;;;13.30;8.90;;;;;;;4.47;100.00;99821.56;109510;1249;67148;-55
2024/03/27 01:43:31;;;;;;;14.80;9.50;;;;;;;4.47;100.00;99828.83;109446;1250;73241;-57
2024/03/27 01:45:59;;;;;;;15.40;9.50;;;;;;;4.46;100.00;99825.76;109438;1250;59773;-55
2024/03/27 01:48:26;;;;;;;20.40;12.20;;;;;;;4.47;100.00;99828.45;109399;1251;59681;-55
2024/03/27 01:50:54;;;;;;;24.50;15.90;;;;;;;4.45;100.00;99829.66;109471;1250;75542;-54
2024/03/27 01:53:21;;;;;;;25.10;16.80;;;;;;;4.30;100.00;99831.00;109419;1250;65060;-54
2024/03/27 01:55:48;;;;;;;26.00;17.10;;;;;;;4.04;100.00;99834.96;109363;1250;71469;-54
2024/03/27 01:58:16;;;;;;;25.00;16.60;;;;;;;3.72;100.00;99837.27;109328;1255;59760;-54
2024/03/27 02:00:43;;;;;;;27.40;17.80;;;;;;;3.42;100.00;99837.91;109424;1249;59713;-55
2024/03/27 02:03:11;;;;;;;26.70;17.90;;;;;;;3.16;100.00;99845.33;109464;1250;75442;-54
2024/03/27 02:05:38;;;;;;;26.80;16.60;;;;;;;2.94;100.00;99847.09;109403;1250;67457;-55
2024/03/27 02:08:06;;;;;;;24.40;15.70;;;;;;;2.73;100.00;99850.57;109461;1252;73635;-55
2024/03/27 02:10:33;;;;;;;27.00;16.20;;;;;;;2.56;100.00;99855.25;109495;1250;59756;-55
2024/03/27 02:13:01;;;;;;;23.30;15.80;;;;;;;2.42;100.00;99854.61;109469;1249;60082;-55
2024/03/27 02:15:28;;;;;;;26.50;17.50;;;;;;;2.29;100.00;99854.15;109442;1250;75535;-55
2024/03/27 02:17:55;;;;;;;25.10;16.20;;;;;;;2.17;100.00;99852.82;109492;1249;67494;-54
2024/03/27 02:20:23;;;;;;;23.80;16.10;;;;;;;2.07;100.00;99853.89;109374;1250;71427;-54
2024/03/27 02:22:53;;;;;;;28.80;16.30;;;;;;;1.96;100.00;99852.98;109467;1250;59750;-55
2024/03/27 02:25:35;;;;;;;26.70;16.80;;;;;;;1.86;100.00;99857.33;109490;1249;59718;-54
2024/03/27 02:28:03;;;;;;;26.80;15.70;;;;;;;1.76;100.00;99866.08;109475;1250;74285;-55
2024/03/27 02:30:30;;;;;;;27.10;16.60;;;;;;;1.66;100.00;99870.02;109359;1250;67121;-54
2024/03/27 02:32:58;;;;;;;23.10;15.10;;;;;;;1.58;100.00;99873.80;109482;1250;72911;-55
2024/03/27 02:35:25;;;;;;;26.10;16.20;;;;;;;1.52;100.00;99868.17;109440;1250;59764;-54
2024/03/27 02:37:53;;;;;;;22.40;13.90;;;;;;;1.49;100.00;99873.04;109449;1250;59847;-54
2024/03/27 02:40:20;;;;;;;22.00;14.40;;;;;;;1.50;100.00;99873.30;109503;1249;75593;-55
2024/03/27 02:42:48;;;;;;;23.50;14.00;;;;;;;1.51;100.00;99874.06;109508;1249;65661;-55
2024/03/27 02:45:15;;;;;;;22.90;14.10;;;;;;;1.52;100.00;99875.27;109421;1249;72748;-54
2024/03/27 02:47:43;;;;;;;23.60;14.80;;;;;;;1.53;100.00;99882.99;109373;1251;61291;-55
2024/03/27 02:50:10;;;;;;;22.50;14.60;;;;;;;1.54;100.00;99888.08;109480;1249;60319;-54
2024/03/27 02:52:38;;;;;;;25.10;15.40;;;;;;;1.54;100.00;99897.45;109444;1250;75506;-54
2024/03/27 02:55:05;;;;;;;23.70;15.40;;;;;;;1.53;100.00;99903.70;109499;1249;65722;-54
2024/03/27 02:57:33;;;;;;;25.70;14.70;;;;;;;1.52;100.00;99904.81;109429;1251;72633;-55
2024/03/27 03:00:01;;;;;;;22.50;14.40;;;;;;;1.51;100.00;99906.23;109419;1252;60119;-55
2024/03/27 03:02:28;;;;;;;27.40;15.40;;;;;;;1.52;100.00;99915.65;109443;1249;60256;-54
2024/03/27 03:04:55;;;;;;;23.00;15.40;;;;;;;1.52;100.00;99919.93;109439;1249;75409;-54
2024/03/27 03:07:23;;;;;;;24.10;14.90;;;;;;;1.50;100.00;99923.33;109486;1249;66142;-54
2024/03/27 03:09:50;;;;;;;21.90;13.90;;;;;;;1.48;100.00;99928.30;109430;1251;71455;-54
2024/03/27 03:12:18;;;;;;;24.70;15.80;;;;;;;1.45;100.00;99929.71;109401;1253;61416;-54
2024/03/27 03:14:45;;;;;;;24.80;14.70;;;;;;;1.44;100.00;99931.84;109490;1250;59722;-54
2024/03/27 03:17:13;;;;;;;27.80;17.40;;;;;;;1.43;100.00;99934.02;109470;1249;74957;-54
2024/03/27 03:20:06;;;;;;;22.50;15.40;;;;;;;1.39;100.00;99931.30;109653;1249;65647;-54
2024/03/27 03:22:34;;;;;;;25.70;17.00;;;;;;;1.33;100.00;99929.77;109451;1251;72852;-53
2024/03/27 03:25:01;;;;;;;26.20;17.10;;;;;;;1.28;100.00;99935.85;109471;1249;60878;-56
2024/03/27 03:27:29;;;;;;;25.10;16.10;;;;;;;1.23;100.00;99935.55;109429;1249;59780;-60
2024/03/27 03:29:56;;;;;;;25.30;15.60;;;;;;;1.19;100.00;99936.04;109456;1250;75590;-56
2024/03/27 03:32:24;;;;;;;24.70;16.00;;;;;;;1.21;100.00;99940.02;109493;1250;67111;-55
2024/03/27 03:34:51;;;;;;;26.20;16.50;;;;;;;1.33;100.00;99942.05;109473;1250;72667;-56
2024/03/27 03:37:18;;;;;;;21.60;15.00;;;;;;;1.55;100.00;99947.15;109462;1249;59715;-55
2024/03/27 03:39:46;;;;;;;23.30;14.60;;;;;;;1.85;100.00;99952.50;109406;1250;60097;-57
2024/03/27 03:42:13;;;;;;;26.10;16.40;;;;;;;2.20;100.00;99953.14;109433;1250;75534;-56
2024/03/27 03:44:41;;;;;;;20.80;13.90;;;;;;;2.62;100.00;99954.52;109452;1249;66214;-56
2024/03/27 03:47:08;;;;;;;25.20;14.90;;;;;;;3.07;100.00;99956.11;109458;1250;72949;-55
2024/03/27 03:49:35;;;;;;;26.20;15.80;;;;;;;3.50;100.00;99960.50;109465;1250;60328;-56
2024/03/27 03:52:03;;;;;;;24.20;15.20;;;;;;;3.92;100.00;99962.88;109445;1249;60171;-56
2024/03/27 03:54:31;;;;;;;22.80;14.40;;;;;;;4.35;100.00;99959.72;109487;1250;74224;-55
2024/03/27 03:56:58;;;;;;;24.60;15.20;;;;;;;4.84;100.00;99959.69;109480;1250;67130;-56
2024/03/27 03:59:26;;;;;;;22.50;15.10;;;;;;;5.34;100.00;99954.94;109480;1250;71678;-55
2024/03/27 04:01:53;;;;;;;18.20;13.30;;;;;;;5.90;100.00;99952.16;109500;1249;60950;-56
2024/03/27 04:04:21;;;;;;;21.80;13.80;;;;;;;6.47;100.00;99947.52;109421;1249;60223;-56
2024/03/27 04:06:48;;;;;;;21.40;15.10;;;;;;;6.96;100.00;99933.42;109432;1251;74042;-56
2024/03/27 04:09:17;;;;;;;21.40;15.30;;;;;;;7.41;100.00;99925.39;109460;1249;65748;-55
2024/03/27 04:11:45;;;;;;;23.50;15.40;;;;;;;7.85;100.00;99924.04;109460;1249;72720;-55
2024/03/27 04:14:12;;;;;;;22.40;16.10;;;;;;;8.39;100.00;99918.05;109462;1249;59811;-57
2024/03/27 04:16:40;;;;;;;25.00;16.90;;;;;;;8.87;100.00;99915.05;109624;1249;62145;-57
2024/03/27 04:19:07;;;;;;;22.00;15.50;;;;;;;9.37;100.00;99909.83;109470;1250;75601;-55
2024/03/27 04:21:34;;;;;;;21.30;15.40;;;;;;;9.99;100.00;99911.33;109471;1250;66352;-56
2024/03/27 04:24:02;;;;;;;20.90;15.40;;;;;;;10.58;100.00;99910.50;109522;1250;72820;-56
2024/03/27 04:26:29;;;;;;;21.50;16.20;;;;;;;11.11;100.00;99911.02;109402;1250;60106;-56
2024/03/27 04:28:58;;;;;;;21.50;14.90;;;;;;;11.72;100.00;99903.11;109481;1249;60708;-56
2024/03/27 04:31:25;;;;;;;22.00;16.60;;;;;;;12.39;100.00;99901.53;109501;1249;75532;-56
2024/03/27 04:33:52;;;;;;;21.50;15.70;;;;;;;12.92;100.00;99907.04;109491;1249;67437;-56
2024/03/27 04:36:20;;;;;;;21.20;15.80;;;;;;;13.31;100.00;99907.30;109441;1249;72734;-57
2024/03/27 04:38:48;;;;;;;20.60;15.10;;;;;;;13.68;100.00;99913.45;109450;1250;60164;-57
2024/03/27 04:41:16;;;;;;;20.60;15.50;;;;;;;14.07;95.72;99918.14;109549;1250;60227;-54
2024/03/27 04:43:43;;;;;;;17.10;14.70;;;;;;;14.45;84.23;99920.84;109499;1250;77324;-54
2024/03/27 04:46:10;;;;;;;19.80;14.60;;;;;;;14.69;74.27;99924.17;109536;1250;65739;-54
2024/03/27 04:48:38;;;;;;;19.40;15.10;;;;;;;14.89;68.31;99930.05;109396;1250;71120;-54
2024/03/27 04:51:05;;;;;;;18.40;14.40;;;;;;;15.03;63.56;99933.45;109409;1252;59767;-54
2024/03/27 04:53:33;;;;;;;20.20;15.60;;;;;;;15.15;61.85;99938.36;109439;1250;60147;-53
2024/03/27 04:56:00;;;;;;;25.50;15.50;;;;;;;15.36;60.84;99945.86;109561;1250;74077;-53
2024/03/27 04:58:28;;;;;;;17.00;13.80;;;;;;;15.63;59.22;99954.20;109492;1250;65467;-54
2024/03/27 05:00:55;;;;;;;14.60;11.20;;;;;;;15.88;58.55;99953.60;109423;1250;70744;-55
2024/03/27 05:03:22;;;;;;;15.20;12.10;;;;;;;16.03;57.13;99952.17;109444;1252;60117;-55
2024/03/27 05:05:50;;;;;;;16.00;12.70;;;;;;;16.13;56.46;99957.61;109437;1249;59754;-55
2024/03/27 05:08:17;;;;;;;16.50;13.00;;;;;;;16.28;56.84;99961.48;109469;1249;74601;-55
2024/03/27 05:10:45;;;;;;;15.10;13.20;;;;;;;16.51;55.78;99964.17;109480;1250;66925;-55
2024/03/27 05:13:12;;;;;;;15.40;13.00;;;;;;;16.72;54.84;99967.34;109391;1252;71993;-54
2024/03/27 05:15:40;;;;;;;17.30;14.30;;;;;;;16.90;53.63;99967.68;109444;1250;60542;-54
2024/03/27 05:18:08;;;;;;;17.70;14.50;;;;;;;16.95;52.63;99970.26;109478;1249;60487;-55
2024/03/27 05:20:35;;;;;;;17.20;14.70;;;;;;;16.69;51.95;99980.16;109500;1250;74207;-55
2024/03/27 05:23:03;;;;;;;19.20;14.90;;;;;;;16.16;53.82;99983.09;109447;1249;66969;-58
2024/03/27 05:25:30;;;;;;;18.70;15.10;;;;;;;15.62;56.93;99983.19;109423;1250;72771;-54
2024/03/27 05:27:58;;;;;;;17.00;15.10;;;;;;;15.08;61.72;99983.63;109478;1249;60259;-54
2024/03/27 05:30:26;;;;;;;19.90;16.80;;;;;;;14.61;68.59;99989.26;109476;1249;60109;-54
2024/03/27 05:32:53;;;;;;;17.20;14.80;;;;;;;14.26;75.70;99999.66;109459;1250;75182;-54
2024/03/27 05:35:21;;;;;;;22.20;15.90;;;;;;;14.05;82.79;100006.05;109327;1250;66903;-54
2024/03/27 05:37:48;;;;;;;18.10;13.80;;;;;;;13.93;88.86;100007.21;109423;1249;71483;-54
2024/03/27 05:40:16;;;;;;;18.90;14.70;;;;;;;13.92;93.30;100015.70;109370;1250;59768;-54
2024/03/27 05:42:45;;;;;;;16.90;13.50;;;;;;;13.92;96.17;100013.35;109461;1250;60067;-57
2024/03/27 05:45:12;;;;;;;16.60;14.20;;;;;;;13.93;99.36;100011.96;109468;1249;75564;-54
2024/03/27 05:47:41;;;;;;;20.80;14.50;;;;;;;13.96;100.00;100010.55;109503;1250;66782;-54
2024/03/27 05:50:09;;;;;;;17.30;14.00;;;;;;;13.93;100.00;100014.75;109427;1250;72701;-55
2024/03/27 05:52:37;;;;;;;18.00;13.60;;;;;;;13.97;100.00;100020.98;109482;1249;60207;-54
2024/03/27 05:55:05;;;;;;;18.30;14.80;;;;;;;14.12;100.00;100026.85;109444;1250;60216;-54
2024/03/27 05:57:33;;;;;;;15.30;12.70;;;;;;;14.23;100.00;100028.39;109476;1250;76153;-54
2024/03/27 06:00:00;;;;;;;18.30;13.50;;;;;;;14.38;100.00;100025.50;109401;1250;67808;-54
2024/03/27 06:02:28;;;;;;;16.90;12.90;;;;;;;14.53;100.00;100028.72;109477;1250;71401;-54
2024/03/27 06:04:55;;;;;;;18.70;12.90;;;;;;;14.64;100.00;100030.78;109438;1250;60122;-54
2024/03/27 06:07:23;;;;;;;16.10;12.20;;;;;;;14.76;100.00;100037.58;109429;1249;61648;-54
2024/03/27 06:09:50;;;;;;;16.30;12.30;;;;;;;14.96;100.00;100039.41;109488;1250;77937;-58
2024/03/27 06:12:18;;;;;;;17.70;12.50;;;;;;;15.18;100.00;100039.90;109436;1249;68945;-55
2024/03/27 06:14:45;;;;;;;15.70;13.00;;;;;;;15.40;100.00;100037.05;109448;1249;74899;-55
2024/03/27 06:17:15;;;;;;;15.30;12.30;;;;;;;15.66;100.00;100040.11;109450;1250;60740;-54
2024/03/27 06:19:42;;;;;;;16.00;11.50;;;;;;;16.01;96.54;100044.66;109519;1250;60186;-54
2024/03/27 06:22:10;;;;;;;12.30;10.80;;;;;;;16.33;91.83;100048.00;109448;1250;74263;-58
2024/03/27 06:24:37;;;;;;;15.50;10.50;;;;;;;16.68;88.35;100048.31;109382;1250;67144;-54
2024/03/27 06:27:05;;;;;;;11.70;9.60;;;;;;;17.05;81.96;100048.58;109435;1250;72561;-54
2024/03/27 06:29:32;;;;;;;11.10;9.50;;;;;;;17.17;77.16;100050.15;109381;1250;60070;-54
2024/03/27 06:32:00;;;;;;;12.50;10.30;;;;;;;17.41;77.00;100042.68;109478;1250;60107;-55
2024/03/27 06:34:27;;;;;;;11.80;9.70;;;;;;;17.96;74.12;100041.59;109433;1250;74215;-56
2024/03/27 06:36:55;;;;;;;10.80;9.70;;;;;;;18.59;66.15;100039.64;109446;1249;66887;-56
2024/03/27 06:39:22;;;;;;;10.40;9.20;;;;;;;19.14;61.74;100038.84;109481;1249;71740;-55
2024/03/27 06:41:49;;;;;;;13.00;10.20;;;;;;;19.75;58.04;100036.67;109441;1250;60100;-56
2024/03/27 06:44:17;;;;;;;12.30;11.10;;;;;;;20.24;52.37;100044.66;109498;1250;60257;-56
2024/03/27 06:46:45;;;;;;;10.90;9.70;;;;;;;20.64;51.34;100050.34;109472;1252;75414;-60
2024/03/27 06:49:18;;;;;;;11.60;10.20;;;;;;;21.20;49.36;100052.75;109477;1250;68309;-56
2024/03/27 06:51:49;;;;;;;11.70;10.00;;;;;;;21.85;47.17;100052.63;109480;1250;72747;-56
2024/03/27 06:54:16;;;;;;;13.10;11.80;;;;;;;22.47;44.66;100049.39;109293;1250;59838;-56
2024/03/27 06:56:44;;;;;;;10.30;9.20;;;;;;;22.98;42.87;100055.88;109420;1249;59816;-59
2024/03/27 06:59:11;;;;;;;11.00;9.00;;;;;;;23.42;41.55;100049.58;109474;1251;75435;-56
2024/03/27 07:01:39;;;;;;;11.00;9.80;;;;;;;23.79;39.60;100046.47;109401;1250;67445;-57
2024/03/27 07:04:06;;;;;;;11.30;9.40;;;;;;;23.97;38.53;100043.73;109431;1250;74851;-56
2024/03/27 07:06:34;;;;;;;10.30;9.30;;;;;;;24.14;38.01;100045.01;109411;1250;62636;-57
2024/03/27 07:09:03;;;;;;;9.70;8.10;;;;;;;24.38;37.44;100043.60;109437;1249;61489;-59
2024/03/27 07:11:31;;;;;;;10.20;9.10;;;;;;;24.60;36.79;100045.93;109471;1250;76526;-56
2024/03/27 07:13:59;;;;;;;10.40;9.10;;;;;;;24.70;35.92;100041.77;109490;1249;66457;-57
2024/03/27 07:16:26;;;;;;;9.30;8.30;;;;;;;24.71;36.21;100041.66;109422;1250;73740;-57
2024/03/27 07:18:54;;;;;;;10.60;9.40;;;;;;;24.97;35.61;100043.73;109450;1250;62408;-57
2024/03/27 07:21:22;;;;;;;9.90;8.90;;;;;;;25.21;34.94;100044.71;109490;1250;61625;-57
2024/03/27 07:23:50;;;;;;;12.00;9.80;;;;;;;25.46;34.44;100042.81;109466;1250;78004;-57
2024/03/27 07:26:17;;;;;;;9.40;8.50;;;;;;;25.68;34.09;100042.82;109465;1250;69470;-57
2024/03/27 07:28:45;;;;;;;10.50;9.40;;;;;;;25.85;33.57;100044.16;109450;1250;74159;-57
2024/03/27 07:31:12;;;;;;;13.50;10.60;;;;;;;25.96;32.95;100041.00;109416;1250;60754;-56
2024/03/27 07:33:40;;;;;;;11.00;9.50;;;;;;;25.96;32.71;100045.22;109499;1250;60784;-56
2024/03/27 07:36:07;;;;;;;13.30;9.80;;;;;;;25.90;32.33;100042.70;109424;1250;75588;-56
2024/03/27 07:38:35;;;;;;;11.40;9.90;;;;;;;25.78;32.34;100048.95;109528;1249;68978;-56
2024/03/27 07:41:03;;;;;;;12.30;10.80;;;;;;;25.61;32.32;100053.13;109397;1253;75100;-57
2024/03/27 07:43:31;;;;;;;11.20;10.10;;;;;;;25.41;32.43;100054.23;109452;1250;63051;-57
2024/03/27 07:46:05;;;;;;;10.80;9.70;;;;;;;25.28;32.79;100057.92;109373;1250;62081;-56
2024/03/27 07:48:33;;;;;;;10.20;9.10;;;;;;;25.30;32.61;100060.51;109314;1250;76501;-56
2024/03/27 07:51:01;;;;;;;9.90;8.40;;;;;;;25.30;32.59;100064.84;109522;1249;69393;-56
2024/03/27 07:53:28;;;;;;;11.60;9.60;;;;;;;25.38;32.35;100065.80;109366;1252;74021;-57
2024/03/27 07:56:03;;;;;;;10.00;9.00;;;;;;;25.29;32.03;100069.70;109468;1250;62472;-56
2024/03/27 07:58:30;;;;;;;10.90;9.20;;;;;;;24.94;32.17;100068.98;109479;1250;62789;-56
2024/03/27 08:00:59;;;;;;;10.30;9.30;;;;;;;24.69;32.74;100069.30;109590;1249;77992;-56
2024/03/27 08:03:28;;;;;;;10.90;9.20;;;;;;;24.42;32.88;100071.96;109436;1250;69327;-56
2024/03/27 08:05:55;;;;;;;8.90;8.00;;;;;;;24.27;33.38;100072.55;109462;1252;75058;-57
2024/03/27 08:08:23;;;;;;;8.60;7.70;;;;;;;24.12;33.31;100079.11;109533;1250;62306;-56
2024/03/27 08:10:57;;;;;;;9.50;8.30;;;;;;;23.91;33.50;100081.97;109533;1250;62614;-56
2024/03/27 08:13:25;;;;;;;10.00;9.00;;;;;;;23.77;34.09;100074.80;109456;1250;77178;-56
2024/03/27 08:15:53;;;;;;;12.30;9.80;;;;;;;23.76;34.09;100071.57;109520;1250;68953;-56
2024/03/27 08:18:20;;;;;;;11.70;10.40;;;;;;;23.69;34.21;100069.41;109467;1250;75025;-57
2024/03/27 08:20:55;;;;;;;13.10;10.70;;;;;;;23.42;34.27;100072.02;109425;1249;61533;-57
2024/03/27 08:23:22;;;;;;;11.50;10.30;;;;;;;23.23;35.02;100078.80;109361;1250;61520;-57
2024/03/27 08:25:50;;;;;;;12.20;10.90;;;;;;;23.29;35.34;100079.73;109511;1250;77700;-56
2024/03/27 08:28:17;;;;;;;11.20;9.60;;;;;;;23.40;35.20;100076.50;109494;1250;69324;-57
2024/03/27 08:30:45;;;;;;;11.00;9.90;;;;;;;23.41;35.20;100082.60;109493;1250;74824;-56
2024/03/27 08:33:13;;;;;;;11.80;10.10;;;;;;;23.39;35.08;100083.25;109479;1250;61528;-56
2024/03/27 08:35:40;;;;;;;11.60;10.10;;;;;;;23.26;35.26;100089.20;109409;1250;62561;-56
2024/03/27 08:38:08;;;;;;;11.50;10.30;;;;;;;23.33;35.31;100089.92;109397;1250;76859;-57
2024/03/27 08:40:41;;;;;;;11.00;9.50;;;;;;;23.32;35.05;100093.98;109475;1250;68415;-56
2024/03/27 08:43:09;;;;;;;11.10;10.00;;;;;;;23.22;35.41;100099.85;109479;1249;75217;-57
2024/03/27 08:45:36;;;;;;;11.30;10.10;;;;;;;23.18;35.50;100100.98;109354;1249;61477;-57
2024/03/27 08:48:04;;;;;;;13.20;11.50;;;;;;;23.09;35.83;100108.39;109492;1250;61278;-57
2024/03/27 08:50:32;;;;;;;13.00;11.10;;;;;;;22.84;36.10;100109.54;109513;1250;78366;-56
2024/03/27 08:53:00;;;;;;;14.80;11.40;;;;;;;22.63;36.79;100110.39;109486;1249;69591;-57
2024/03/27 08:55:27;;;;;;;13.40;11.60;;;;;;;22.49;37.12;100111.29;109380;1250;74847;-59
2024/03/27 08:57:55;;;;;;;13.80;12.40;;;;;;;22.58;37.72;100113.09;109445;1253;61537;-56
2024/03/27 09:00:22;;;;;;;14.60;11.80;;;;;;;22.81;37.35;100106.02;109521;1250;61543;-55
2024/03/27 09:02:50;;;;;;;13.10;11.80;;;;;;;22.98;37.03;100106.29;109463;1250;77707;-55
2024/03/27 09:05:18;;;;;;;16.00;12.50;;;;;;;23.14;36.67;100109.19;109468;1250;69372;-56
2024/03/27 09:07:45;;;;;;;13.40;12.00;;;;;;;23.27;36.40;100109.15;109401;1253;73749;-57
2024/03/27 09:10:13;;;;;;;13.80;11.60;;;;;;;23.29;36.14;100112.13;109467;1250;62563;-55
2024/03/27 09:12:41;;;;;;;14.40;12.30;;;;;;;23.23;35.95;100115.27;109445;1257;62274;-55
2024/03/27 09:15:10;;;;;;;13.10;11.70;;;;;;;23.09;36.14;100114.93;109472;1250;77563;-55
2024/03/27 09:17:38;;;;;;;19.70;12.00;;;;;;;22.93;36.45;100119.59;109435;1250;69464;-59
2024/03/27 09:20:06;;;;;;;14.80;12.20;;;;;;;22.83;36.97;100123.19;109501;1250;73743;-55
2024/03/27 09:22:33;;;;;;;13.80;12.10;;;;;;;22.81;36.52;100127.12;109466;1250;61479;-55
2024/03/27 09:25:01;;;;;;;13.10;11.80;;;;;;;22.57;37.04;100128.40;109490;1250;61087;-56
2024/03/27 09:27:29;;;;;;;13.50;12.10;;;;;;;22.42;37.47;100130.20;109487;1250;77355;-55
2024/03/27 09:29:56;;;;;;;12.60;11.30;;;;;;;22.39;37.66;100136.20;109443;1250;67168;-55
2024/03/27 09:32:27;;;;;;;13.20;11.50;;;;;;;22.27;37.66;100138.79;109454;1250;75488;-55
2024/03/27 09:34:55;;;;;;;14.30;12.00;;;;;;;21.96;37.89;100146.42;109497;1250;61543;-55
2024/03/27 09:37:23;;;;;;;15.00;12.80;;;;;;;21.59;38.36;100149.41;109510;1250;62886;-55
2024/03/27 09:39:50;;;;;;;13.10;11.70;;;;;;;21.35;39.28;100146.33;109487;1250;78005;-60
2024/03/27 09:42:18;;;;;;;17.40;12.20;;;;;;;21.22;39.67;100145.96;109490;1250;67776;-57
2024/03/27 09:44:46;;;;;;;13.60;12.10;;;;;;;21.09;40.20;100145.23;109463;1253;75334;-55
2024/03/27 09:47:13;;;;;;;16.60;13.70;;;;;;;20.85;40.68;100146.23;109439;1250;63006;-56
2024/03/27 09:49:41;;;;;;;13.60;11.80;;;;;;;20.70;41.59;100149.83;109244;1250;62385;-56
2024/03/27 09:52:09;;;;;;;17.70;13.70;;;;;;;20.75;41.85;100147.91;109448;1250;78218;-55
2024/03/27 09:54:40;;;;;;;17.60;12.70;;;;;;;20.76;41.75;100149.08;109556;1251;68735;-55
2024/03/27 09:57:09;;;;;;;15.60;12.00;;;;;;;20.69;41.85;100155.11;109493;1250;75264;-56
2024/03/27 09:59:37;;;;;;;15.20;13.50;;;;;;;20.40;42.10;100154.98;109514;1249;61213;-56
2024/03/27 10:02:04;;;;;;;14.20;11.90;;;;;;;19.83;43.41;100155.27;109498;1249;62521;-55
2024/03/27 10:04:33;;;;;;;16.20;13.20;;;;;;;19.59;45.02;100151.82;109503;1250;77377;-56
2024/03/27 10:07:04;;;;;;;19.60;15.40;;;;;;;19.47;45.88;100152.73;109487;1250;67985;-55
2024/03/27 10:09:31;;;;;;;17.80;13.20;;;;;;;19.44;46.42;100153.47;109495;1250;74176;-55
2024/03/27 10:11:59;;;;;;;17.70;14.60;;;;;;;19.38;46.69;100159.15;109493;1250;62672;-56
2024/03/27 10:14:27;;;;;;;15.30;12.70;;;;;;;19.26;46.91;100166.59;109474;1250;61381;-56
2024/03/27 10:16:54;;;;;;;16.60;13.30;;;;;;;18.96;47.98;100171.21;109516;1250;77547;-55
2024/03/27 10:19:22;;;;;;;17.60;13.90;;;;;;;18.82;49.18;100171.30;109546;1250;69784;-55
2024/03/27 10:21:49;;;;;;;18.40;14.20;;;;;;;18.78;49.80;100174.08;109477;1250;74825;-59
2024/03/27 10:24:17;;;;;;;17.00;14.20;;;;;;;18.71;50.48;100179.92;109466;1250;62755;-56
2024/03/27 10:26:48;;;;;;;19.70;14.20;;;;;;;18.77;51.10;100178.65;109514;1250;62591;-56
2024/03/27 10:29:16;;;;;;;15.90;12.50;;;;;;;18.72;51.10;100179.52;109473;1250;77029;-55
2024/03/27 10:31:43;;;;;;;17.70;13.10;;;;;;;18.60;52.20;100179.67;109436;1249;69459;-55
2024/03/27 10:34:11;;;;;;;17.80;15.20;;;;;;;18.68;52.75;100182.14;109469;1252;75284;-56
2024/03/27 10:36:40;;;;;;;16.20;13.50;;;;;;;18.82;51.89;100178.86;109467;1250;62655;-55
2024/03/27 10:39:10;;;;;;;17.40;13.60;;;;;;;18.88;51.01;100184.18;109378;1250;62056;-56
2024/03/27 10:41:40;;;;;;;17.90;13.90;;;;;;;18.84;51.43;100178.88;109412;1250;78108;-56
2024/03/27 10:44:08;;;;;;;19.70;14.30;;;;;;;18.91;51.19;100178.27;109414;1256;68780;-55
2024/03/27 10:46:36;;;;;;;16.60;12.90;;;;;;;18.92;50.96;100178.64;109242;1250;75285;-56
2024/03/27 10:49:03;;;;;;;18.60;14.50;;;;;;;18.88;50.39;100178.16;109460;1250;61473;-57
2024/03/27 10:51:31;;;;;;;28.60;14.20;;;;;;;18.70;51.07;100177.69;109475;1251;60140;-58
2024/03/27 10:53:59;;;;;;;17.20;14.20;;;;;;;18.72;51.92;100176.20;109389;1250;77543;-56
2024/03/27 10:56:27;;;;;;;16.50;13.40;;;;;;;18.95;51.71;100171.36;109451;1250;69634;-56
2024/03/27 10:58:54;;;;;;;20.30;15.30;;;;;;;19.28;50.24;100168.73;109474;1250;75088;-56
2024/03/27 11:01:24;;;;;;;19.60;16.00;;;;;;;19.51;48.72;100171.92;109409;1253;62662;-56
2024/03/27 11:03:52;;;;;;;17.00;14.70;;;;;;;19.60;47.74;100169.64;109483;1250;62626;-57
2024/03/27 11:06:19;;;;;;;18.90;13.30;;;;;;;19.65;47.15;100166.14;109535;1250;77196;-56
2024/03/27 11:08:47;;;;;;;15.20;12.10;;;;;;;19.76;46.66;100164.06;109487;1250;66944;-56